createdAt,value
2023-04-21T00:02:14.778Z,99000.72
2023-04-21T00:05:27.454Z,98998.06
2023-04-21T00:08:40.791Z,98995.69
2023-04-21T00:11:52.785Z,98998.91
2023-04-21T00:15:04.950Z,98996.84
2023-04-21T00:18:18.141Z,98996.73
2023-04-21T00:21:30.212Z,98991.53
2023-04-21T00:24:42.307Z,98988.17
2023-04-21T00:27:54.464Z,98985.42
2023-04-21T00:31:06.572Z,98983.59
2023-04-21T00:34:18.737Z,98990.39
2023-04-21T00:37:31.308Z,98986.69
2023-04-21T00:40:43.351Z,98987.03
2023-04-21T00:44:14.308Z,98983.15
2023-04-21T00:47:26.903Z,98985.09
2023-04-21T00:50:40.084Z,98981.45
2023-04-21T00:53:53.647Z,98979.78
2023-04-21T00:57:08.037Z,98981.73
2023-04-21T01:00:23.071Z,98980.03
2023-04-21T01:03:35.642Z,98976.95
2023-04-21T01:06:50.126Z,98976.09
2023-04-21T01:10:02.169Z,98977.79
2023-04-21T01:13:14.782Z,98975.00
2023-04-21T01:16:28.172Z,98975.14
2023-04-21T01:19:43.608Z,98975.25
2023-04-21T01:22:56.019Z,98972.59
2023-04-21T01:26:10.275Z,98971.64
2023-04-21T01:29:22.718Z,98973.58
2023-04-21T01:32:36.300Z,98973.58
2023-04-21T01:35:49.162Z,98976.47
2023-04-21T01:39:03.132Z,98972.40
2023-04-21T01:42:15.463Z,98974.53
2023-04-21T01:45:27.504Z,98974.30
2023-04-21T01:48:40.421Z,98975.89
2023-04-21T01:51:52.593Z,98967.03
2023-04-21T01:55:06.267Z,98974.61
2023-04-21T01:58:19.472Z,98967.38
2023-04-21T02:01:31.725Z,98969.03
2023-04-21T02:04:43.956Z,98969.31
2023-04-21T02:07:56.249Z,98973.31
2023-04-21T02:11:10.296Z,98980.92
2023-04-21T02:14:24.305Z,98976.64
2023-04-21T02:17:36.566Z,98988.59
2023-04-21T02:20:48.900Z,98988.95
2023-04-21T02:24:01.119Z,98998.33
2023-04-21T02:27:13.376Z,98992.66
2023-04-21T02:30:25.802Z,98992.53
2023-04-21T02:33:38.008Z,98987.02
2023-04-21T02:36:50.021Z,98986.07
2023-04-21T02:40:01.942Z,98983.88
2023-04-21T02:43:15.831Z,98978.92
2023-04-21T02:46:27.802Z,98982.14
2023-04-21T02:49:39.973Z,98982.86
2023-04-21T02:52:52.050Z,98983.57
2023-04-21T02:56:05.383Z,98981.64
2023-04-21T02:59:18.400Z,98984.28
2023-04-21T03:02:32.790Z,98981.20
2023-04-21T03:05:44.984Z,98984.22
2023-04-21T03:08:57.080Z,98984.86
2023-04-21T03:12:11.431Z,98982.44
2023-04-21T03:15:24.111Z,98974.05
2023-04-21T03:18:36.691Z,98979.84
2023-04-21T03:21:48.739Z,98983.00
2023-04-21T03:25:00.811Z,98985.70
2023-04-21T03:28:13.846Z,98993.86
2023-04-21T03:31:25.948Z,98989.81
2023-04-21T03:34:38.186Z,98990.66
2023-04-21T03:37:50.453Z,98987.52
2023-04-21T03:41:02.576Z,98989.70
2023-04-21T03:44:14.682Z,98995.22
2023-04-21T03:47:26.765Z,98986.19
2023-04-21T03:50:38.980Z,98988.38
2023-04-21T03:53:51.142Z,98995.10
2023-04-21T03:57:03.370Z,98996.06
2023-04-21T04:00:19.297Z,99006.14
2023-04-21T04:03:31.652Z,99010.25
2023-04-21T04:06:43.801Z,99018.66
2023-04-21T04:09:55.787Z,99014.91
2023-04-21T04:13:07.864Z,99017.46
2023-04-21T04:16:20.049Z,99012.17
2023-04-21T04:19:37.610Z,99013.84
2023-04-21T04:22:49.664Z,99012.64
2023-04-21T04:26:01.850Z,99020.45
2023-04-21T04:29:16.559Z,99024.66
2023-04-21T04:32:28.942Z,99030.92
2023-04-21T04:35:41.249Z,99029.83
2023-04-21T04:38:53.298Z,99036.09
2023-04-21T04:42:05.571Z,99042.45
2023-04-21T04:45:17.702Z,99043.55
2023-04-21T04:48:29.804Z,99045.94
2023-04-21T04:51:41.796Z,99044.61
2023-04-21T04:54:53.918Z,99044.26
2023-04-21T04:58:06.506Z,99043.33
2023-04-21T05:01:24.852Z,99046.43
2023-04-21T05:04:38.123Z,99046.98
2023-04-21T05:07:50.492Z,99043.21
2023-04-21T05:11:02.644Z,99043.77
2023-04-21T05:14:14.911Z,99052.41
2023-04-21T05:17:27.671Z,99052.56
2023-04-21T05:20:39.983Z,99050.31
2023-04-21T05:23:52.133Z,99043.91
2023-04-21T05:27:04.341Z,99045.70
2023-04-21T05:30:18.391Z,99044.38
2023-04-21T05:33:32.125Z,99038.92
2023-04-21T05:36:49.266Z,99034.37
2023-04-21T05:39:59.723Z,99034.70
2023-04-21T05:43:11.967Z,99036.86
2023-04-21T05:46:24.179Z,99039.81
2023-04-21T05:49:36.334Z,99037.70
2023-04-21T05:52:48.612Z,99034.06
2023-04-21T05:56:00.722Z,99031.68
2023-04-21T05:59:13.049Z,99033.06
2023-04-21T06:02:25.419Z,99023.08
2023-04-21T06:05:38.320Z,99029.02
2023-04-21T06:08:50.500Z,99018.27
2023-04-21T06:12:02.859Z,99019.02
2023-04-21T06:15:17.086Z,99019.47
2023-04-21T06:18:30.838Z,99015.02
2023-04-21T06:21:43.251Z,99009.20
2023-04-21T06:24:57.853Z,99003.81
2023-04-21T06:28:10.997Z,99004.37
2023-04-21T06:31:23.347Z,99005.86
2023-04-21T06:34:35.780Z,99001.55
2023-04-21T06:42:39.121Z,98978.36
2023-04-21T06:45:51.638Z,98983.41
2023-04-21T06:49:04.884Z,98978.28
2023-04-21T06:52:18.293Z,98980.02
2023-04-21T06:55:31.275Z,98979.20
2023-04-21T06:58:43.307Z,98982.80
2023-04-21T07:01:55.428Z,98970.25
2023-04-21T07:05:08.062Z,98969.20
2023-04-21T07:08:20.105Z,98969.41
2023-04-21T07:11:32.155Z,98966.01
2023-04-21T07:14:44.450Z,98964.88
2023-04-21T07:17:56.684Z,98954.13
2023-04-21T07:21:08.971Z,98965.27
2023-04-21T07:24:21.014Z,98963.75
2023-04-21T07:27:33.275Z,98964.80
2023-04-21T07:30:45.408Z,98965.64
2023-04-21T07:33:57.702Z,98953.89
2023-04-21T07:37:10.048Z,98950.49
2023-04-21T07:40:22.416Z,98951.30
2023-04-21T07:43:34.717Z,98941.98
2023-04-21T07:46:47.090Z,98938.34
2023-04-21T07:49:59.501Z,98938.45
2023-04-21T07:53:12.027Z,98947.81
2023-04-21T07:56:24.424Z,98943.38
2023-04-21T07:59:36.651Z,98944.16
2023-04-21T08:02:48.936Z,98941.69
2023-04-21T08:06:01.648Z,98942.12
2023-04-21T08:09:14.130Z,98932.17
2023-04-21T08:12:26.293Z,98936.55
2023-04-21T08:15:39.041Z,98933.73
2023-04-21T08:18:51.259Z,98943.55
2023-04-21T08:22:03.452Z,98931.80
2023-04-21T08:25:16.463Z,98920.25
2023-04-21T08:28:28.669Z,98913.64
2023-04-21T08:31:40.852Z,98919.13
2023-04-21T08:34:53.391Z,98916.63
2023-04-21T08:38:05.611Z,98917.27
2023-04-21T08:41:20.203Z,98913.92
2023-04-21T08:44:32.567Z,98912.85
2023-04-21T08:47:58.343Z,98912.08
2023-04-21T08:51:32.125Z,98908.70
2023-04-21T08:54:47.639Z,98907.90
2023-04-21T08:57:59.859Z,98901.42
2023-04-21T09:01:12.433Z,98904.47
2023-04-21T09:04:25.569Z,98898.30
2023-04-21T09:07:43.158Z,98897.02
2023-04-21T09:10:56.618Z,98888.78
2023-04-21T09:14:10.117Z,98891.35
2023-04-21T09:17:26.013Z,98884.23
2023-04-21T09:20:38.180Z,98884.91
2023-04-21T09:23:52.961Z,98877.45
2023-04-21T09:27:06.893Z,98875.72
2023-04-21T09:30:22.872Z,98874.36
2023-04-21T09:33:49.521Z,98873.69
2023-04-21T09:36:53.689Z,98858.58
2023-04-21T09:40:06.966Z,98867.38
2023-04-21T09:43:19.014Z,98860.89
2023-04-21T09:46:31.730Z,98853.50
2023-04-21T09:49:46.877Z,98846.72
2023-04-21T09:53:02.456Z,98838.48
2023-04-21T09:56:18.476Z,98848.00
2023-04-21T09:59:36.916Z,98833.45
2023-04-21T10:02:54.363Z,98826.02
2023-04-21T10:06:07.319Z,98828.09
2023-04-21T10:09:22.280Z,98828.44
2023-04-21T10:12:35.278Z,98820.34
2023-04-21T10:15:48.182Z,98816.28
2023-04-21T10:19:00.393Z,98826.25
2023-04-21T10:22:14.156Z,98824.70
2023-04-21T10:25:27.138Z,98831.34
2023-04-21T10:28:51.179Z,98823.91
2023-04-21T10:32:03.744Z,98820.41
2023-04-21T10:35:20.057Z,98816.70
2023-04-21T10:41:49.462Z,98809.78
2023-04-21T10:45:14.794Z,98809.48
2023-04-21T10:48:29.368Z,98814.83
2023-04-21T10:52:16.696Z,98814.14
2023-04-21T10:55:34.335Z,98814.78
2023-04-21T10:58:47.429Z,98812.55
2023-04-21T11:02:00.788Z,98824.33
2023-04-21T11:05:15.377Z,98823.27
2023-04-21T11:08:27.684Z,98817.02
2023-04-21T11:11:40.684Z,98810.59
2023-04-21T11:14:53.851Z,98800.47
2023-04-21T11:18:06.162Z,98795.22
2023-04-21T11:21:22.747Z,98806.91
2023-04-21T11:24:35.247Z,98814.14
2023-04-21T11:27:47.495Z,98816.01
2023-04-21T11:30:59.660Z,98819.80
2023-04-21T11:34:12.976Z,98822.05
2023-04-21T11:37:32.110Z,98822.20
2023-04-21T11:40:55.237Z,98812.33
2023-04-21T11:44:08.183Z,98811.52
2023-04-21T11:47:25.422Z,98810.09
2023-04-21T11:50:42.012Z,98799.90
2023-04-21T11:53:57.326Z,98802.57
2023-04-21T11:57:09.661Z,98805.86
2023-04-21T12:00:24.873Z,98807.72
2023-04-21T12:03:39.113Z,98803.50
2023-04-21T12:06:54.520Z,98802.31
2023-04-21T12:10:11.864Z,98799.42
2023-04-21T12:13:31.048Z,98785.30
2023-04-21T12:16:44.903Z,98779.91
2023-04-21T12:19:57.209Z,98786.49
2023-04-21T12:23:09.176Z,98766.83
2023-04-21T12:26:21.227Z,98768.53
2023-04-21T12:29:35.253Z,98754.90
2023-04-21T12:32:47.897Z,98768.92
2023-04-21T12:36:00.239Z,98754.45
2023-04-21T12:39:13.899Z,98745.56
2023-04-21T12:42:25.967Z,98744.34
2023-04-21T12:45:38.206Z,98750.47
2023-04-21T12:48:52.616Z,98744.86
2023-04-21T12:52:06.094Z,98742.55
2023-04-21T12:55:18.950Z,98745.02
2023-04-21T12:58:30.990Z,98754.78
2023-04-21T13:01:44.312Z,98749.38
2023-04-21T13:04:56.588Z,98742.31
2023-04-21T13:08:08.926Z,98734.77
2023-04-21T13:11:20.935Z,98729.02
2023-04-21T13:14:33.745Z,98735.28
2023-04-21T13:17:46.560Z,98721.09
2023-04-21T13:20:58.587Z,98731.00
2023-04-21T13:24:14.611Z,98730.48
2023-04-21T13:27:26.391Z,98730.27
2023-04-21T13:30:39.192Z,98713.05
2023-04-21T13:33:53.536Z,98715.75
2023-04-21T13:37:06.250Z,98716.76
2023-04-21T13:40:19.789Z,98707.63
2023-04-21T13:43:32.157Z,98706.73
2023-04-21T13:46:44.688Z,98706.59
2023-04-21T13:49:56.974Z,98706.59
2023-04-21T13:53:09.126Z,98705.13
2023-04-21T13:56:22.057Z,98707.64
2023-04-21T13:59:34.486Z,98702.65
2023-04-21T14:02:47.194Z,98695.60
2023-04-21T14:05:59.587Z,98688.13
2023-04-21T14:09:12.268Z,98688.97
2023-04-21T14:12:26.408Z,98689.38
2023-04-21T14:15:39.290Z,98688.13
2023-04-21T14:18:51.153Z,98677.95
2023-04-21T14:22:03.499Z,98679.00
2023-04-21T14:25:16.741Z,98681.92
2023-04-21T14:28:28.818Z,98677.79
2023-04-21T14:31:41.116Z,98690.03
2023-04-21T14:34:53.963Z,98678.78
2023-04-21T14:38:06.779Z,98664.91
2023-04-21T14:41:18.996Z,98678.20
2023-04-21T14:44:30.883Z,98670.67
2023-04-21T14:47:43.343Z,98673.16
2023-04-21T14:50:55.812Z,98674.83
2023-04-21T14:54:08.043Z,98664.42
2023-04-21T14:57:22.076Z,98668.51
2023-04-21T15:00:35.043Z,98669.94
2023-04-21T15:03:47.896Z,98669.13
2023-04-21T15:07:01.862Z,98665.98
2023-04-21T15:10:17.361Z,98654.77
2023-04-21T15:13:29.698Z,98664.94
2023-04-21T15:16:41.824Z,98656.44
2023-04-21T15:19:54.090Z,98657.81
2023-04-21T15:23:06.461Z,98660.08
2023-04-21T15:26:18.626Z,98650.36
2023-04-21T15:29:30.661Z,98653.68
2023-04-21T15:32:42.797Z,98657.98
2023-04-21T15:35:54.965Z,98653.39
2023-04-21T15:39:07.120Z,98647.12
2023-04-21T15:42:19.653Z,98654.52
2023-04-21T15:45:32.138Z,98655.73
2023-04-21T15:48:44.505Z,98653.25
2023-04-21T15:51:56.948Z,98649.83
2023-04-21T15:55:10.538Z,98641.73
2023-04-21T15:58:22.693Z,98645.64
2023-04-21T16:01:35.043Z,98651.23
2023-04-21T16:04:47.455Z,98643.77
2023-04-21T16:07:59.785Z,98639.17
2023-04-21T16:11:12.780Z,98648.25
2023-04-21T16:14:25.878Z,98643.66
2023-04-21T16:17:38.426Z,98639.19
2023-04-21T16:20:51.017Z,98637.55
2023-04-21T16:24:05.288Z,98635.63
2023-04-21T16:27:17.644Z,98639.09
2023-04-21T16:30:30.089Z,98644.98
2023-04-21T16:33:42.084Z,98642.66
2023-04-21T16:36:54.515Z,98649.77
2023-04-21T16:40:07.896Z,98652.13
2023-04-21T16:43:20.250Z,98653.41
2023-04-21T16:46:32.580Z,98647.34
2023-04-21T16:49:44.693Z,98643.63
2023-04-21T16:52:56.887Z,98649.00
2023-04-21T16:56:09.317Z,98637.36
2023-04-21T16:59:24.009Z,98646.81
2023-04-21T17:02:37.322Z,98639.51
2023-04-21T17:05:50.257Z,98643.30
2023-04-21T17:09:03.669Z,98650.91
2023-04-21T17:12:15.640Z,98645.28
2023-04-21T17:15:27.740Z,98646.77
2023-04-21T17:18:40.664Z,98640.19
2023-04-21T17:21:52.618Z,98646.18
2023-04-21T17:25:04.702Z,98650.48
2023-04-21T17:28:17.274Z,98650.56
2023-04-21T17:31:29.677Z,98652.20
2023-04-21T17:34:41.999Z,98652.18
2023-04-21T17:37:54.256Z,98656.82
2023-04-21T17:41:08.049Z,98656.75
2023-04-21T17:44:20.107Z,98644.84
2023-04-21T17:47:33.570Z,98657.56
2023-04-21T17:50:45.901Z,98651.73
2023-04-21T17:53:57.896Z,98657.93
2023-04-21T17:57:11.722Z,98660.42
2023-04-21T18:00:26.074Z,98660.28
2023-04-21T18:03:40.237Z,98666.02
2023-04-21T18:06:53.386Z,98663.89
2023-04-21T18:10:05.451Z,98667.95
2023-04-21T18:13:17.902Z,98668.77
2023-04-21T18:16:30.166Z,98673.81
2023-04-21T18:19:42.566Z,98677.84
2023-04-21T18:22:56.780Z,98675.86
2023-04-21T18:26:09.185Z,98678.89
2023-04-21T18:29:22.124Z,98682.31
2023-04-21T18:32:37.435Z,98690.33
2023-04-21T18:35:50.166Z,98684.31
2023-04-21T18:39:02.422Z,98682.31
2023-04-21T18:42:14.652Z,98690.18
2023-04-21T18:45:27.079Z,98692.21
2023-04-21T18:48:39.990Z,98690.71
2023-04-21T18:51:52.479Z,98692.38
2023-04-21T18:55:04.620Z,98685.86
2023-04-21T18:58:16.794Z,98700.72
2023-04-21T19:01:29.533Z,98697.03
2023-04-21T19:04:44.039Z,98696.03
2023-04-21T19:07:56.382Z,98692.86
2023-04-21T19:11:10.328Z,98698.33
2023-04-21T19:14:22.835Z,98704.28
2023-04-21T19:17:35.281Z,98708.52
2023-04-21T19:20:48.087Z,98708.08
2023-04-21T19:24:00.283Z,98701.98
2023-04-21T19:27:12.783Z,98712.23
2023-04-21T19:30:25.985Z,98715.14
2023-04-21T19:33:38.249Z,98706.28
2023-04-21T19:36:52.080Z,98717.02
2023-04-21T19:40:04.514Z,98709.80
2023-04-21T19:43:17.248Z,98720.55
2023-04-21T19:46:29.969Z,98709.74
2023-04-21T19:49:42.389Z,98711.59
2023-04-21T19:52:54.858Z,98714.80
2023-04-21T19:56:07.781Z,98719.20
2023-04-21T19:59:20.099Z,98716.47
2023-04-21T20:02:32.596Z,98709.25
2023-04-21T20:05:45.922Z,98712.52
2023-04-21T20:08:58.301Z,98713.97
2023-04-21T20:12:10.800Z,98709.06
2023-04-21T20:15:23.851Z,98714.01
2023-04-21T20:18:36.495Z,98722.72
2023-04-21T20:21:50.059Z,98716.17
2023-04-21T20:25:02.340Z,98717.09
2023-04-21T20:28:14.493Z,98727.09
2023-04-21T20:31:27.231Z,98716.20
2023-04-21T20:34:39.709Z,98718.35
2023-04-21T20:37:53.757Z,98721.06
2023-04-21T20:41:06.111Z,98714.14
2023-04-21T20:44:20.705Z,98715.30
2023-04-21T20:47:33.974Z,98721.03
2023-04-21T20:50:48.482Z,98735.28
2023-04-21T20:54:01.073Z,98726.77
2023-04-21T20:57:13.334Z,98727.08
2023-04-21T21:00:26.770Z,98731.57
2023-04-21T21:03:39.468Z,98729.36
2023-04-21T21:06:52.216Z,98733.70
2023-04-21T21:10:05.154Z,98727.45
2023-04-21T21:13:17.533Z,98740.28
2023-04-21T21:16:30.129Z,98734.13
2023-04-21T21:19:42.447Z,98734.98
2023-04-21T21:22:55.166Z,98727.16
2023-04-21T21:26:08.028Z,98735.80
2023-04-21T21:29:20.499Z,98733.70
2023-04-21T21:32:33.050Z,98731.61
2023-04-21T21:35:45.525Z,98735.08
2023-04-21T21:38:57.440Z,98738.84
2023-04-21T21:42:09.972Z,98740.79
2023-04-21T21:45:22.320Z,98745.53
2023-04-21T21:48:34.692Z,98750.68
2023-04-21T21:51:46.762Z,98753.63
2023-04-21T21:54:58.976Z,98743.72
2023-04-21T21:58:11.393Z,98753.17
2023-04-21T22:01:23.520Z,98747.02
2023-04-21T22:04:36.071Z,98755.41
2023-04-21T22:07:50.967Z,98751.59
2023-04-21T22:11:03.871Z,98757.17
2023-04-21T22:14:22.523Z,98751.27
2023-04-21T22:17:31.075Z,98748.03
2023-04-21T22:20:43.544Z,98748.56
2023-04-21T22:23:56.131Z,98755.09
2023-04-21T22:27:08.440Z,98752.20
2023-04-21T22:30:21.284Z,98750.43
2023-04-21T22:33:33.439Z,98750.36
2023-04-21T22:36:45.460Z,98743.72
2023-04-21T22:39:57.864Z,98746.97
2023-04-21T22:43:10.371Z,98741.21
2023-04-21T22:46:22.905Z,98755.80
2023-04-21T22:49:35.170Z,98758.03
2023-04-21T22:52:47.487Z,98758.98
2023-04-21T22:56:00.154Z,98759.51
2023-04-21T22:59:12.464Z,98754.22
2023-04-21T23:02:24.874Z,98755.58
2023-04-21T23:05:37.567Z,98744.96
2023-04-21T23:08:49.561Z,98747.19
2023-04-21T23:12:01.672Z,98746.45
2023-04-21T23:15:16.028Z,98756.86
2023-04-21T23:18:28.028Z,98752.55
2023-04-21T23:21:40.372Z,98753.08
2023-04-21T23:24:52.897Z,98751.66
2023-04-21T23:28:05.049Z,98742.36
2023-04-21T23:31:17.040Z,98748.27
2023-04-21T23:34:29.279Z,98744.77
2023-04-21T23:37:41.788Z,98755.49
2023-04-21T23:40:53.767Z,98751.47
2023-04-21T23:44:06.103Z,98750.25
2023-04-21T23:47:18.176Z,98753.13
2023-04-21T23:50:30.451Z,98759.06
2023-04-21T23:53:42.674Z,98746.48
2023-04-21T23:56:54.815Z,98749.34
